createdAt,value
2017-11-27T03:03:48.266Z,1013.85
2017-11-27T03:04:28.800Z,1013.9
2017-11-27T03:05:09.518Z,1013.85
2017-11-27T03:05:50.047Z,1013.84
2017-11-27T03:06:30.550Z,1013.84
2017-11-27T03:07:11.102Z,1013.82
2017-11-27T03:07:51.612Z,1013.85
2017-11-27T03:08:32.120Z,1013.8
2017-11-27T03:09:12.680Z,1013.8
2017-11-27T03:09:53.388Z,1013.81
2017-11-27T03:10:33.752Z,1013.81
2017-11-27T03:11:14.333Z,1013.78
2017-11-27T03:11:54.891Z,1013.81
2017-11-27T03:12:35.405Z,1013.76
2017-11-27T03:13:15.987Z,1013.83
2017-11-27T03:13:56.491Z,1013.75
2017-11-27T03:14:37.037Z,1013.79
2017-11-27T03:15:17.606Z,1013.78
2017-11-27T03:15:58.101Z,1013.78
2017-11-27T03:16:38.635Z,1013.75
2017-11-27T03:17:19.149Z,1013.79
2017-11-27T03:17:59.657Z,1013.78
2017-11-27T03:18:40.219Z,1013.79
2017-11-27T03:19:20.761Z,1013.79
2017-11-27T03:20:01.297Z,1013.77
2017-11-27T03:20:41.792Z,1013.76
2017-11-27T03:21:22.442Z,1013.73
2017-11-27T03:22:03.051Z,1013.73
2017-11-27T03:22:43.539Z,1013.77
2017-11-27T03:23:24.145Z,1013.74
2017-11-27T03:24:04.685Z,1013.72
2017-11-27T03:24:45.359Z,1013.75
2017-11-27T03:25:25.877Z,1013.73
2017-11-27T03:26:06.395Z,1013.66
2017-11-27T03:26:46.940Z,1013.61
2017-11-27T03:27:27.405Z,1013.62
2017-11-27T03:28:07.981Z,1013.59
2017-11-27T03:28:48.489Z,1013.56
2017-11-27T03:29:29.050Z,1013.63
2017-11-27T03:30:09.561Z,1013.61
2017-11-27T03:30:50.096Z,1013.55
2017-11-27T03:31:30.631Z,1013.56
2017-11-27T03:32:11.160Z,1013.6
2017-11-27T03:32:51.752Z,1013.55
2017-11-27T03:33:32.233Z,1013.6
2017-11-27T03:34:12.760Z,1013.57
2017-11-27T03:34:53.301Z,1013.57
2017-11-27T03:35:33.837Z,1013.52
2017-11-27T03:36:14.375Z,1013.54
2017-11-27T03:36:54.915Z,1013.58
2017-11-27T03:37:35.501Z,1013.52
2017-11-27T03:38:16.011Z,1013.52
2017-11-27T03:38:56.532Z,1013.53
2017-11-27T03:39:37.102Z,1013.51
2017-11-27T03:40:17.709Z,1013.51
2017-11-27T03:40:58.217Z,1013.55
2017-11-27T03:41:38.746Z,1013.52
2017-11-27T03:42:19.283Z,1013.49
2017-11-27T03:42:59.803Z,1013.52
2017-11-27T03:43:40.316Z,1013.46
2017-11-27T03:44:20.827Z,1013.51
2017-11-27T03:45:01.352Z,1013.47
2017-11-27T03:45:41.870Z,1013.49
2017-11-27T03:46:22.402Z,1013.45
2017-11-27T03:47:02.952Z,1013.5
2017-11-27T03:47:43.420Z,1013.41
2017-11-27T03:48:23.967Z,1013.44
2017-11-27T03:49:04.492Z,1013.46
2017-11-27T03:49:45.024Z,1013.39
2017-11-27T03:50:25.543Z,1013.38
2017-11-27T03:51:06.167Z,1013.41
2017-11-27T03:51:46.735Z,1013.36
2017-11-27T03:52:27.233Z,1013.35
2017-11-27T03:53:07.783Z,1013.42
2017-11-27T03:53:48.374Z,1013.4
2017-11-27T03:54:28.881Z,1013.45
2017-11-27T03:55:09.447Z,1013.41
2017-11-27T03:55:50.035Z,1013.42
2017-11-27T03:56:30.576Z,1013.41
2017-11-27T03:57:11.980Z,1013.37
2017-11-27T03:57:52.500Z,1013.39
2017-11-27T03:58:33.076Z,1013.38
2017-11-27T03:59:13.632Z,1013.42
2017-11-27T03:59:54.128Z,1013.41
2017-11-27T04:00:34.685Z,1013.39
2017-11-27T04:01:15.177Z,1013.44
2017-11-27T04:01:55.759Z,1013.45
2017-11-27T04:02:36.300Z,1013.4
2017-11-27T04:03:16.826Z,1013.43
2017-11-27T04:03:57.446Z,1013.37
2017-11-27T04:04:37.902Z,1013.43
2017-11-27T04:05:18.464Z,1013.43
2017-11-27T04:05:59.024Z,1013.37
2017-11-27T04:06:39.481Z,1013.38
2017-11-27T04:07:20.083Z,1013.36
2017-11-27T04:08:00.682Z,1013.41
2017-11-27T04:08:41.278Z,1013.44
2017-11-27T04:09:21.791Z,1013.39
2017-11-27T04:10:02.392Z,1013.43
2017-11-27T04:10:42.941Z,1013.39
2017-11-27T04:11:23.460Z,1013.44
2017-11-27T04:12:03.991Z,1013.45
2017-11-27T04:12:44.524Z,1013.41
2017-11-27T04:13:25.049Z,1013.41
2017-11-27T04:14:05.569Z,1013.37
2017-11-27T04:14:46.090Z,1013.39
2017-11-27T04:15:26.636Z,1013.42
2017-11-27T04:16:07.305Z,1013.44
2017-11-27T04:16:47.850Z,1013.35
2017-11-27T04:17:28.328Z,1013.42
2017-11-27T04:18:08.874Z,1013.42
2017-11-27T04:18:49.468Z,1013.42
2017-11-27T04:19:29.986Z,1013.45
2017-11-27T04:20:10.535Z,1013.4
2017-11-27T04:20:51.096Z,1013.38
2017-11-27T04:21:31.638Z,1013.38
2017-11-27T04:22:12.209Z,1013.34
2017-11-27T04:22:52.887Z,1013.28
2017-11-27T04:23:33.429Z,1013.36
2017-11-27T04:24:14.044Z,1013.31
2017-11-27T04:24:54.570Z,1013.25
2017-11-27T04:25:35.114Z,1013.37
2017-11-27T04:26:15.647Z,1013.3
2017-11-27T04:26:56.212Z,1013.31
2017-11-27T04:27:36.739Z,1013.31
2017-11-27T04:28:17.302Z,1013.33
2017-11-27T04:28:57.911Z,1013.28
2017-11-27T04:29:38.443Z,1013.37
2017-11-27T04:30:19.015Z,1013.34
2017-11-27T04:30:59.549Z,1013.38
2017-11-27T04:31:40.085Z,1013.3
2017-11-27T04:32:20.646Z,1013.33
2017-11-27T04:33:01.200Z,1013.24
2017-11-27T04:33:41.721Z,1013.35
2017-11-27T04:34:22.268Z,1013.36
2017-11-27T04:35:02.787Z,1013.34
2017-11-27T04:35:43.353Z,1013.34
2017-11-27T04:36:23.891Z,1013.33
2017-11-27T04:37:04.439Z,1013.32
2017-11-27T04:37:44.959Z,1013.34
2017-11-27T04:38:25.495Z,1013.31
2017-11-27T04:39:06.045Z,1013.33
2017-11-27T04:39:46.580Z,1013.32
2017-11-27T04:40:27.081Z,1013.35
2017-11-27T04:41:07.648Z,1013.38
2017-11-27T04:41:48.155Z,1013.36
2017-11-27T04:42:28.722Z,1013.36
2017-11-27T04:43:09.232Z,1013.36
2017-11-27T04:43:49.785Z,1013.38
2017-11-27T04:44:30.323Z,1013.31
2017-11-27T04:45:10.812Z,1013.32
2017-11-27T04:45:51.386Z,1013.35
2017-11-27T04:46:31.921Z,1013.3
2017-11-27T04:47:12.427Z,1013.29
2017-11-27T04:47:52.974Z,1013.28
2017-11-27T04:48:33.500Z,1013.27
2017-11-27T04:49:14.019Z,1013.31
2017-11-27T04:49:54.559Z,1013.28
2017-11-27T04:50:35.111Z,1013.25
2017-11-27T04:51:15.646Z,1013.23
2017-11-27T04:51:56.137Z,1013.28
2017-11-27T04:52:36.697Z,1013.23
2017-11-27T04:53:17.211Z,1013.22
2017-11-27T04:53:57.762Z,1013.23
2017-11-27T04:54:38.314Z,1013.17
2017-11-27T04:55:18.810Z,1013.2
2017-11-27T04:55:59.388Z,1013.21
2017-11-27T04:56:39.880Z,1013.18
2017-11-27T04:57:20.426Z,1013.2
2017-11-27T04:58:00.997Z,1013.23
2017-11-27T04:58:41.491Z,1013.18
2017-11-27T04:59:22.004Z,1013.18
2017-11-27T05:00:02.591Z,1013.2
2017-11-27T05:00:43.149Z,1013.16
2017-11-27T05:01:23.699Z,1013.17
2017-11-27T05:02:04.240Z,1013.16
2017-11-27T05:02:44.815Z,1013.17
2017-11-27T05:03:25.423Z,1013.1
2017-11-27T05:04:05.980Z,1013.07
2017-11-27T05:04:46.454Z,1013.1
2017-11-27T05:05:27.027Z,1013.06
2017-11-27T05:06:07.567Z,1013.08
2017-11-27T05:06:48.071Z,1013.08
2017-11-27T05:07:28.572Z,1013.11
2017-11-27T05:08:09.122Z,1013.06
2017-11-27T05:08:49.724Z,1013.05
2017-11-27T05:09:30.274Z,1013.04
2017-11-27T05:10:10.757Z,1013.06
2017-11-27T05:10:51.317Z,1013.1
2017-11-27T05:11:31.939Z,1013.09
2017-11-27T05:12:12.478Z,1013.05
2017-11-27T05:12:53.068Z,1013.05
2017-11-27T05:13:33.625Z,1013.04
2017-11-27T05:14:14.115Z,1013.09
2017-11-27T05:14:54.593Z,1013.09
2017-11-27T05:15:35.214Z,1013.07
2017-11-27T05:16:15.717Z,1013.06
2017-11-27T05:16:56.333Z,1013.09
2017-11-27T05:17:36.913Z,1013.04
2017-11-27T05:18:17.429Z,1013.07
2017-11-27T05:18:58.003Z,1013.04
2017-11-27T05:19:38.522Z,1013.03
2017-11-27T05:20:19.044Z,1013.03
2017-11-27T05:20:59.585Z,1013.04
2017-11-27T05:21:40.208Z,1012.99
2017-11-27T05:22:20.869Z,1013.03
2017-11-27T05:23:01.414Z,1013
2017-11-27T05:23:41.947Z,1013
2017-11-27T05:24:22.462Z,1013.01
2017-11-27T05:25:03.051Z,1013
2017-11-27T05:25:43.597Z,1013.02
2017-11-27T05:26:24.130Z,1012.97
2017-11-27T05:27:04.747Z,1013.02
2017-11-27T05:27:45.279Z,1013
2017-11-27T05:28:25.797Z,1012.99
2017-11-27T05:29:06.347Z,1012.95
2017-11-27T05:29:46.911Z,1013
2017-11-27T05:30:27.411Z,1012.98
2017-11-27T05:31:07.962Z,1012.97
2017-11-27T05:31:48.508Z,1012.98
2017-11-27T05:32:29.072Z,1012.92
2017-11-27T05:33:09.605Z,1012.97
2017-11-27T05:33:50.174Z,1012.97
2017-11-27T05:34:30.753Z,1012.96
2017-11-27T05:35:11.304Z,1012.93
2017-11-27T05:35:51.817Z,1012.93
2017-11-27T05:36:32.374Z,1012.92
2017-11-27T05:37:12.941Z,1012.93
2017-11-27T05:37:53.457Z,1012.95
2017-11-27T05:38:33.994Z,1012.94
2017-11-27T05:39:14.527Z,1012.97
2017-11-27T05:39:55.086Z,1013.01
2017-11-27T05:40:35.615Z,1013.01
2017-11-27T05:41:16.120Z,1012.96
2017-11-27T05:41:56.664Z,1012.97
2017-11-27T05:42:37.206Z,1012.97
2017-11-27T05:43:17.762Z,1012.93
2017-11-27T05:43:58.275Z,1013
2017-11-27T05:44:38.836Z,1012.97
2017-11-27T05:45:19.358Z,1012.99
2017-11-27T05:45:59.959Z,1012.88
2017-11-27T05:46:40.459Z,1012.88
2017-11-27T05:47:20.997Z,1012.83
2017-11-27T05:48:01.562Z,1012.78
2017-11-27T05:48:42.158Z,1012.85
2017-11-27T05:49:22.707Z,1012.82
2017-11-27T05:50:03.271Z,1012.8
2017-11-27T05:50:43.822Z,1012.78
2017-11-27T05:51:24.326Z,1012.82
2017-11-27T05:52:04.881Z,1012.83
2017-11-27T05:52:45.391Z,1012.84
2017-11-27T05:53:25.935Z,1012.75
2017-11-27T05:54:06.491Z,1012.77
2017-11-27T05:54:46.986Z,1012.78
2017-11-27T05:55:27.513Z,1012.73
2017-11-27T05:56:08.021Z,1012.79
2017-11-27T05:56:48.580Z,1012.75
2017-11-27T05:57:29.105Z,1012.78
2017-11-27T05:58:09.592Z,1012.74
2017-11-27T05:58:50.177Z,1012.74
2017-11-27T05:59:30.675Z,1012.72
2017-11-27T06:00:11.208Z,1012.71
2017-11-27T06:00:51.998Z,1012.7
2017-11-27T06:01:32.531Z,1012.72
2017-11-27T06:02:13.063Z,1012.75
2017-11-27T06:02:53.606Z,1012.72
2017-11-27T06:03:34.142Z,1012.77
2017-11-27T06:04:14.627Z,1012.71
2017-11-27T06:04:55.271Z,1012.72
2017-11-27T06:05:35.758Z,1012.74
2017-11-27T06:06:17.023Z,1012.76
2017-11-27T06:06:57.536Z,1012.74
2017-11-27T06:07:38.033Z,1012.77
2017-11-27T06:08:18.771Z,1012.75
2017-11-27T06:08:59.299Z,1012.7
2017-11-27T06:09:39.846Z,1012.7
2017-11-27T06:10:20.433Z,1012.66
2017-11-27T06:11:00.974Z,1012.72
2017-11-27T06:11:41.451Z,1012.73
2017-11-27T06:12:22.587Z,1012.68
2017-11-27T06:13:03.289Z,1012.67
2017-11-27T06:13:43.882Z,1012.72
2017-11-27T06:14:24.373Z,1012.73
2017-11-27T06:15:04.931Z,1012.68
2017-11-27T06:15:45.495Z,1012.71
2017-11-27T06:16:25.989Z,1012.68
2017-11-27T06:17:06.701Z,1012.66
2017-11-27T06:17:47.101Z,1012.66
2017-11-27T06:18:27.641Z,1012.61
2017-11-27T06:19:08.243Z,1012.64
2017-11-27T06:19:48.788Z,1012.6
2017-11-27T06:20:29.521Z,1012.58
2017-11-27T06:21:09.974Z,1012.64
2017-11-27T06:21:50.633Z,1012.66
2017-11-27T06:22:31.155Z,1012.67
2017-11-27T06:23:11.677Z,1012.75
2017-11-27T06:23:52.189Z,1012.72
2017-11-27T06:24:32.951Z,1012.72
2017-11-27T06:25:13.574Z,1012.7
2017-11-27T06:25:54.122Z,1012.71
2017-11-27T06:26:34.679Z,1012.74
2017-11-27T06:27:15.324Z,1012.71
2017-11-27T06:27:56.537Z,1012.74
2017-11-27T06:28:37.221Z,1012.72
2017-11-27T06:29:17.771Z,1012.75
2017-11-27T06:29:58.440Z,1012.82
2017-11-27T06:30:38.981Z,1012.81
2017-11-27T06:31:19.545Z,1012.87
2017-11-27T06:32:00.966Z,1012.84
2017-11-27T06:32:40.669Z,1012.84
2017-11-27T06:33:21.209Z,1012.77
2017-11-27T06:34:01.732Z,1012.84
2017-11-27T06:34:42.225Z,1012.75
2017-11-27T06:35:22.823Z,1012.8
2017-11-27T06:36:03.410Z,1012.81
2017-11-27T06:36:44.207Z,1012.79
2017-11-27T06:37:24.697Z,1012.76
2017-11-27T06:38:05.269Z,1012.69
2017-11-27T06:38:45.807Z,1012.77
2017-11-27T06:39:26.303Z,1012.73
2017-11-27T06:40:06.866Z,1012.79
2017-11-27T06:40:47.418Z,1012.82
2017-11-27T06:41:27.958Z,1012.77
2017-11-27T06:42:08.518Z,1012.72
2017-11-27T06:42:49.125Z,1012.77
2017-11-27T06:43:29.724Z,1012.75
2017-11-27T06:44:10.214Z,1012.7
2017-11-27T06:44:50.772Z,1012.72
2017-11-27T06:45:31.299Z,1012.73
2017-11-27T06:46:11.818Z,1012.68
2017-11-27T06:46:52.397Z,1012.68
2017-11-27T06:47:32.900Z,1012.71
2017-11-27T06:48:13.540Z,1012.68
2017-11-27T06:48:54.053Z,1012.73
2017-11-27T06:49:34.588Z,1012.7
2017-11-27T06:50:15.139Z,1012.74
2017-11-27T06:50:55.700Z,1012.65
2017-11-27T06:51:36.272Z,1012.69
2017-11-27T06:52:16.806Z,1012.69
2017-11-27T06:52:57.356Z,1012.71
2017-11-27T06:53:37.875Z,1012.66
2017-11-27T06:54:18.436Z,1012.66
2017-11-27T06:54:58.961Z,1012.68
2017-11-27T06:55:39.585Z,1012.71
2017-11-27T06:56:20.145Z,1012.65
2017-11-27T06:57:00.664Z,1012.74
2017-11-27T06:57:41.269Z,1012.69
2017-11-27T06:58:21.871Z,1012.66
2017-11-27T06:59:02.356Z,1012.65
2017-11-27T06:59:42.917Z,1012.72
2017-11-27T07:00:23.486Z,1012.7
2017-11-27T07:01:04.019Z,1012.7
2017-11-27T07:01:44.664Z,1012.73
2017-11-27T07:02:25.239Z,1012.77
2017-11-27T07:03:06.849Z,1012.73
2017-11-27T07:03:47.443Z,1012.74
2017-11-27T07:04:28.084Z,1012.69
2017-11-27T07:05:08.723Z,1012.65
2017-11-27T07:05:50.151Z,1012.68
2017-11-27T07:06:30.378Z,1012.61
2017-11-27T07:07:11.524Z,1012.63
2017-11-27T07:07:52.041Z,1012.65
2017-11-27T07:08:32.537Z,1012.67
2017-11-27T07:09:14.395Z,1012.6
2017-11-27T07:09:54.975Z,1012.64
2017-11-27T07:10:35.604Z,1012.6
2017-11-27T07:11:16.322Z,1012.67
2017-11-27T07:11:57.604Z,1012.65
2017-11-27T07:12:38.127Z,1012.54
2017-11-27T07:13:18.697Z,1012.61
2017-11-27T07:13:59.296Z,1012.62
2017-11-27T07:14:40.901Z,1012.6
2017-11-27T07:15:20.921Z,1012.58
2017-11-27T07:16:01.533Z,1012.64
2017-11-27T07:16:42.402Z,1012.66
2017-11-27T07:17:23.162Z,1012.68
2017-11-27T07:18:03.732Z,1012.69
2017-11-27T07:18:44.440Z,1012.64
2017-11-27T07:19:25.092Z,1012.62
2017-11-27T07:20:05.767Z,1012.66
2017-11-27T07:20:46.390Z,1012.66
2017-11-27T07:21:27.000Z,1012.65
2017-11-27T07:22:07.931Z,1012.64
2017-11-27T07:22:48.504Z,1012.59
2017-11-27T07:23:29.072Z,1012.66
2017-11-27T07:24:09.623Z,1012.63
2017-11-27T07:24:54.218Z,1012.6
2017-11-27T07:25:33.356Z,1012.62
2017-11-27T07:26:13.989Z,1012.58
2017-11-27T07:26:54.567Z,1012.55
2017-11-27T07:27:35.086Z,1012.5
2017-11-27T07:28:15.564Z,1012.59
2017-11-27T07:28:56.101Z,1012.56
2017-11-27T07:29:37.396Z,1012.53
2017-11-27T07:30:18.023Z,1012.55
2017-11-27T07:30:59.411Z,1012.58
2017-11-27T07:31:39.113Z,1012.47
2017-11-27T07:32:19.673Z,1012.53
2017-11-27T07:33:00.360Z,1012.46
2017-11-27T07:33:40.828Z,1012.43
2017-11-27T07:34:24.433Z,1012.49
2017-11-27T07:35:12.545Z,1012.47
2017-11-27T07:35:53.062Z,1012.41
2017-11-27T07:36:33.634Z,1012.47
2017-11-27T07:37:14.177Z,1012.41
2017-11-27T07:37:54.698Z,1012.45
2017-11-27T07:38:35.253Z,1012.44
2017-11-27T07:39:16.119Z,1012.42
2017-11-27T07:39:56.802Z,1012.37
2017-11-27T07:40:40.081Z,1012.34
2017-11-27T07:41:21.481Z,1012.34
2017-11-27T07:42:02.093Z,1012.41
2017-11-27T07:42:42.611Z,1012.34
2017-11-27T07:43:23.180Z,1012.35
2017-11-27T07:44:03.705Z,1012.3
2017-11-27T07:44:44.405Z,1012.29
2017-11-27T07:45:25.121Z,1012.32
2017-11-27T07:46:05.661Z,1012.29
2017-11-27T07:46:46.331Z,1012.28
2017-11-27T07:47:26.893Z,1012.24
2017-11-27T07:48:07.540Z,1012.27
2017-11-27T07:48:48.104Z,1012.28
2017-11-27T07:49:28.595Z,1012.31
2017-11-27T07:50:09.132Z,1012.22
2017-11-27T07:50:49.735Z,1012.24
2017-11-27T07:51:30.225Z,1012.24
2017-11-27T07:52:10.787Z,1012.24
2017-11-27T07:52:51.366Z,1012.22
2017-11-27T07:53:31.891Z,1012.24
2017-11-27T07:54:12.580Z,1012.23
2017-11-27T07:54:53.180Z,1012.28
2017-11-27T07:55:33.839Z,1012.22
2017-11-27T07:56:14.568Z,1012.26
2017-11-27T07:56:55.236Z,1012.19
2017-11-27T07:57:35.868Z,1012.25
2017-11-27T07:58:16.713Z,1012.25
2017-11-27T07:58:57.261Z,1012.23
2017-11-27T07:59:38.002Z,1012.18
2017-11-27T08:00:18.571Z,1012.24
2017-11-27T08:00:59.490Z,1012.12
2017-11-27T08:01:40.093Z,1012.16
2017-11-27T08:02:20.592Z,1012.11
2017-11-27T08:03:01.167Z,1012.14
2017-11-27T08:03:41.698Z,1012.07
2017-11-27T08:04:22.471Z,1012.08
2017-11-27T08:05:02.870Z,1012.09
2017-11-27T08:05:43.534Z,1012.09
2017-11-27T08:06:24.175Z,1012.1
2017-11-27T08:07:04.616Z,1012.13
2017-11-27T08:07:46.237Z,1012.07
2017-11-27T08:08:27.075Z,1012.15
2017-11-27T08:09:07.740Z,1012.05
2017-11-27T08:09:48.392Z,1012.16
2017-11-27T08:10:28.890Z,1012.14
2017-11-27T08:11:09.464Z,1012.09
2017-11-27T08:11:50.009Z,1012.1
2017-11-27T08:12:30.743Z,1012.11
2017-11-27T08:13:11.443Z,1012.09
2017-11-27T08:13:51.825Z,1012.1
2017-11-27T08:14:32.314Z,1012.07
2017-11-27T08:15:12.975Z,1012.04
2017-11-27T08:15:53.575Z,1011.99
2017-11-27T08:16:34.187Z,1011.97
2017-11-27T08:17:14.816Z,1012
2017-11-27T08:17:55.374Z,1012.02
2017-11-27T08:18:35.938Z,1011.97
2017-11-27T08:19:16.445Z,1011.97
2017-11-27T08:19:57.139Z,1011.91
2017-11-27T08:20:37.649Z,1011.95
2017-11-27T08:21:18.297Z,1011.83
2017-11-27T08:21:58.845Z,1011.94
2017-11-27T08:22:39.400Z,1011.91
2017-11-27T08:23:20.138Z,1011.92
2017-11-27T08:24:00.721Z,1011.95
2017-11-27T08:24:41.377Z,1011.94
2017-11-27T08:25:21.922Z,1011.94
2017-11-27T08:26:02.455Z,1011.88
2017-11-27T08:26:43.050Z,1011.88
2017-11-27T08:27:23.877Z,1011.89
2017-11-27T08:28:04.960Z,1011.91
2017-11-27T08:28:45.701Z,1011.92
2017-11-27T08:29:26.429Z,1011.89
2017-11-27T08:30:06.997Z,1011.94
2017-11-27T08:30:47.514Z,1011.93
2017-11-27T08:31:28.198Z,1011.92
2017-11-27T08:32:09.126Z,1012
2017-11-27T08:32:49.770Z,1011.99
2017-11-27T08:33:30.174Z,1011.98
2017-11-27T08:34:10.790Z,1011.92
2017-11-27T08:34:51.626Z,1011.87
2017-11-27T08:35:32.064Z,1011.84
2017-11-27T08:36:12.733Z,1011.86
2017-11-27T08:36:53.475Z,1011.86
2017-11-27T08:37:34.276Z,1011.83
2017-11-27T08:38:14.879Z,1011.77
2017-11-27T08:38:55.383Z,1011.8
2017-11-27T08:39:35.966Z,1011.83
2017-11-27T08:40:16.478Z,1011.76
2017-11-27T08:40:57.086Z,1011.68
2017-11-27T08:41:37.816Z,1011.74
2017-11-27T08:42:18.565Z,1011.79
2017-11-27T08:42:59.529Z,1011.72
2017-11-27T08:43:40.136Z,1011.76
2017-11-27T08:44:20.725Z,1011.74
2017-11-27T08:45:01.251Z,1011.72
2017-11-27T08:45:42.018Z,1011.68
2017-11-27T08:46:22.635Z,1011.69
2017-11-27T08:47:03.196Z,1011.69
2017-11-27T08:47:43.722Z,1011.66
2017-11-27T08:48:24.330Z,1011.63
2017-11-27T08:49:04.986Z,1011.61
2017-11-27T08:49:45.603Z,1011.61
2017-11-27T08:50:26.344Z,1011.59
2017-11-27T08:51:07.494Z,1011.55
2017-11-27T08:51:47.938Z,1011.57
2017-11-27T08:52:27.967Z,1011.54
2017-11-27T08:53:08.520Z,1011.58
2017-11-27T08:53:49.081Z,1011.64
2017-11-27T08:54:29.716Z,1011.58
2017-11-27T08:55:10.288Z,1011.65
2017-11-27T08:55:50.876Z,1011.61
2017-11-27T08:56:31.433Z,1011.62
2017-11-27T08:57:12.950Z,1011.56
2017-11-27T08:57:53.560Z,1011.51
2017-11-27T08:58:34.177Z,1011.55
2017-11-27T08:59:14.813Z,1011.61
2017-11-27T08:59:55.292Z,1011.56
2017-11-27T09:00:35.822Z,1011.52
2017-11-27T09:01:17.229Z,1011.52
2017-11-27T09:01:57.842Z,1011.44
2017-11-27T09:02:38.355Z,1011.45
2017-11-27T09:03:18.920Z,1011.43
2017-11-27T09:03:59.647Z,1011.41
2017-11-27T09:04:40.180Z,1011.43
2017-11-27T09:05:20.842Z,1011.43
2017-11-27T09:06:01.360Z,1011.45
2017-11-27T09:06:42.009Z,1011.35
2017-11-27T09:07:22.580Z,1011.35
2017-11-27T09:08:03.116Z,1011.43
2017-11-27T09:08:43.716Z,1011.37
2017-11-27T09:09:24.348Z,1011.5
2017-11-27T09:10:04.933Z,1011.42
2017-11-27T09:10:45.443Z,1011.37
2017-11-27T09:11:26.085Z,1011.42
2017-11-27T09:12:06.485Z,1011.34
2017-11-27T09:12:47.082Z,1011.37
2017-11-27T09:13:27.755Z,1011.38
2017-11-27T09:14:08.401Z,1011.41
2017-11-27T09:14:48.941Z,1011.32
2017-11-27T09:15:29.461Z,1011.36
2017-11-27T09:16:10.176Z,1011.37
2017-11-27T09:16:50.968Z,1011.3
2017-11-27T09:17:31.509Z,1011.3
2017-11-27T09:18:13.002Z,1011.25
2017-11-27T09:18:53.560Z,1011.27
2017-11-27T09:19:34.095Z,1011.24
2017-11-27T09:20:14.712Z,1011.18
2017-11-27T09:20:55.340Z,1011.23
2017-11-27T09:21:35.845Z,1011.29
2017-11-27T09:22:16.936Z,1011.27
2017-11-27T09:22:56.961Z,1011.2
2017-11-27T09:23:37.554Z,1011.22
2017-11-27T09:24:18.071Z,1011.13
2017-11-27T09:24:58.772Z,1011.22
2017-11-27T09:25:39.231Z,1011.21
2017-11-27T09:26:19.799Z,1011.2
2017-11-27T09:27:00.321Z,1011.2
2017-11-27T09:27:40.882Z,1011.31
2017-11-27T09:28:21.452Z,1011.25
2017-11-27T09:29:02.102Z,1011.27
2017-11-27T09:29:42.547Z,1011.33
2017-11-27T09:30:23.300Z,1011.28
2017-11-27T09:31:03.916Z,1011.23
2017-11-27T09:31:44.417Z,1011.26
2017-11-27T09:32:25.210Z,1011.32
2017-11-27T09:33:05.746Z,1011.23
2017-11-27T09:33:46.389Z,1011.23
2017-11-27T09:34:26.914Z,1011.16
2017-11-27T09:35:07.572Z,1011.19
2017-11-27T09:35:48.143Z,1011.22
2017-11-27T09:36:28.716Z,1011.21
2017-11-27T09:37:10.795Z,1011.2
2017-11-27T09:37:54.008Z,1011.21
2017-11-27T09:39:49.138Z,1011.15
2017-11-27T09:40:29.735Z,1011.06
2017-11-27T09:41:10.325Z,1011.09
2017-11-27T09:41:50.907Z,1011.1
2017-11-27T09:42:31.421Z,1011.09
2017-11-27T09:43:12.201Z,1011.05
2017-11-27T09:43:52.730Z,1011.06
2017-11-27T09:44:33.269Z,1010.99
2017-11-27T09:45:13.989Z,1011.04
2017-11-27T09:45:54.552Z,1011.03
2017-11-27T09:46:35.133Z,1011.03
2017-11-27T09:47:15.689Z,1010.96
2017-11-27T09:47:56.147Z,1011.03
2017-11-27T09:48:36.772Z,1011.06
2017-11-27T09:49:17.446Z,1010.94
2017-11-27T09:49:58.345Z,1011
2017-11-27T09:50:38.912Z,1011.04
2017-11-27T09:51:19.415Z,1010.94
2017-11-27T09:52:00.155Z,1010.94
2017-11-27T09:52:40.843Z,1010.95
2017-11-27T09:53:21.451Z,1010.86
2017-11-27T09:54:01.963Z,1010.96
2017-11-27T09:54:42.456Z,1010.86
2017-11-27T09:55:23.073Z,1010.95
2017-11-27T09:56:03.661Z,1010.92
2017-11-27T09:56:44.140Z,1010.89
2017-11-27T09:57:24.703Z,1010.88
2017-11-27T09:58:05.283Z,1010.87
2017-11-27T09:58:45.799Z,1010.91
2017-11-27T09:59:26.354Z,1010.81
2017-11-27T10:00:07.044Z,1010.81
2017-11-27T10:00:47.506Z,1010.86
2017-11-27T10:01:28.086Z,1010.8
2017-11-27T10:02:08.563Z,1010.81
2017-11-27T10:02:49.187Z,1010.73
2017-11-27T10:03:29.737Z,1010.7
2017-11-27T10:04:10.241Z,1010.71
2017-11-27T10:04:50.893Z,1010.76
2017-11-27T10:05:31.404Z,1010.75
2017-11-27T10:06:11.968Z,1010.71
2017-11-27T10:06:52.710Z,1010.67
2017-11-27T10:07:33.631Z,1010.67
2017-11-27T10:08:14.124Z,1010.64
2017-11-27T10:08:54.672Z,1010.65
2017-11-27T10:09:35.229Z,1010.62
2017-11-27T10:10:15.761Z,1010.63
2017-11-27T10:10:56.447Z,1010.55
2017-11-27T10:11:36.961Z,1010.55
2017-11-27T10:12:17.442Z,1010.6
2017-11-27T10:12:57.984Z,1010.57
2017-11-27T10:13:38.566Z,1010.5
2017-11-27T10:14:19.201Z,1010.52
2017-11-27T10:14:59.746Z,1010.55
2017-11-27T10:15:40.508Z,1010.55
2017-11-27T10:16:21.080Z,1010.59
2017-11-27T10:17:01.762Z,1010.51
2017-11-27T10:17:42.245Z,1010.46
2017-11-27T10:18:23.006Z,1010.52
2017-11-27T10:19:03.729Z,1010.5
2017-11-27T10:19:44.168Z,1010.48
2017-11-27T10:20:24.948Z,1010.44
2017-11-27T10:21:05.641Z,1010.43
2017-11-27T10:21:46.352Z,1010.45
2017-11-27T10:22:27.326Z,1010.35
2017-11-27T10:23:07.944Z,1010.37
2017-11-27T10:23:48.579Z,1010.45
2017-11-27T10:24:29.137Z,1010.4
2017-11-27T10:25:09.582Z,1010.31
2017-11-27T10:25:50.273Z,1010.37
2017-11-27T10:26:30.849Z,1010.35
2017-11-27T10:27:11.340Z,1010.39
2017-11-27T10:27:51.926Z,1010.36
2017-11-27T10:28:32.477Z,1010.26
2017-11-27T10:29:13.006Z,1010.3
2017-11-27T10:29:53.647Z,1010.33
2017-11-27T10:30:34.249Z,1010.32
2017-11-27T10:31:15.034Z,1010.35
2017-11-27T10:31:55.663Z,1010.3
2017-11-27T10:32:36.212Z,1010.25
2017-11-27T10:33:17.516Z,1010.22
2017-11-27T10:34:01.727Z,1010.29
2017-11-27T10:34:42.757Z,1010.2
2017-11-27T10:35:22.948Z,1010.24
2017-11-27T10:36:03.467Z,1010.25
2017-11-27T10:36:44.078Z,1010.22
2017-11-27T10:37:24.511Z,1010.17
2017-11-27T10:38:05.023Z,1010.27
2017-11-27T10:38:45.598Z,1010.16
2017-11-27T10:39:26.169Z,1010.21
2017-11-27T10:40:06.778Z,1010.16
2017-11-27T10:40:47.239Z,1010.15
2017-11-27T10:41:27.833Z,1010.16
2017-11-27T10:42:08.362Z,1010.14
2017-11-27T10:42:48.899Z,1010.1
2017-11-27T10:43:29.427Z,1010.07
2017-11-27T10:44:10.144Z,1010.06
2017-11-27T10:44:50.926Z,1010.06
2017-11-27T10:45:31.476Z,1010.04
2017-11-27T10:46:12.011Z,1009.95
2017-11-27T10:46:52.576Z,1009.97
2017-11-27T10:47:33.547Z,1010.02
2017-11-27T10:48:14.539Z,1010.03
2017-11-27T10:48:55.374Z,1010.02
2017-11-27T10:49:35.929Z,1010.01
2017-11-27T10:50:16.544Z,1009.96
2017-11-27T10:50:57.078Z,1009.95
2017-11-27T10:51:39.493Z,1009.94
2017-11-27T10:52:19.736Z,1009.89
2017-11-27T10:53:00.471Z,1009.88
2017-11-27T10:53:41.037Z,1009.83
2017-11-27T10:54:21.529Z,1009.82
2017-11-27T10:55:02.055Z,1009.91
2017-11-27T10:55:42.603Z,1009.94
2017-11-27T10:56:26.148Z,1009.78
2017-11-27T10:57:06.678Z,1009.84
2017-11-27T10:57:47.246Z,1009.87
2017-11-27T10:58:29.697Z,1009.82
2017-11-27T10:59:10.493Z,1009.78
2017-11-27T10:59:51.234Z,1009.78
2017-11-27T11:00:31.675Z,1009.83
2017-11-27T11:01:12.221Z,1009.85
2017-11-27T11:01:53.123Z,1009.84
2017-11-27T11:02:34.214Z,1009.79
2017-11-27T11:03:15.366Z,1009.78
2017-11-27T11:03:55.960Z,1009.78
2017-11-27T11:04:36.467Z,1009.79
2017-11-27T11:05:17.114Z,1009.73
2017-11-27T11:05:57.546Z,1009.72
2017-11-27T11:06:38.531Z,1009.7
2017-11-27T11:07:19.626Z,1009.7
2017-11-27T11:08:00.630Z,1009.62
2017-11-27T11:08:41.175Z,1009.59
2017-11-27T11:09:21.782Z,1009.58
2017-11-27T11:10:02.576Z,1009.55
2017-11-27T11:10:43.141Z,1009.54
2017-11-27T11:11:26.049Z,1009.6
2017-11-27T11:12:06.633Z,1009.48
2017-11-27T11:12:47.155Z,1009.56
2017-11-27T11:13:27.762Z,1009.5
2017-11-27T11:14:08.270Z,1009.62
2017-11-27T11:16:40.988Z,1009.52
2017-11-27T11:17:21.504Z,1009.5
2017-11-27T11:18:02.107Z,1009.47
2017-11-27T11:18:42.643Z,1009.59
2017-11-27T11:19:23.173Z,1009.48
2017-11-27T11:20:03.785Z,1009.47